Sterling, OK (73567)

1:20 PM CST on February 19, 2017 (GMT -0600)
rural | | Change Station

Elev 1100 ft 34.74 °N, 98.25 °W | Updated 2 minutes ago

Overcast
Overcast
71.1 °F
Feels Like 73 °F
N
12.1
Wind Variable Wind from South
Gusts 16.1 mph

Today
High -- | Low -- °F
--% Chance of Precip.
Yesterday
High -- | Low -- °F
Precip. -- in
Pressure 29.82 in
Visibility 10.0 miles
Clouds Scattered Clouds 2800 ft
Mostly Cloudy 6000 ft
Heat Index 73 °F
Dew Point 62 °F
Humidity 73%
Rainfall 0.00 in
Snow Depth Not available.
7:13 AM 6:19 PM
Last Quarter, 41% visible
SPECI KFSI 191912Z AUTO 16013KT 10SM SCT028 BKN060 23/17 A2983 RMK AO2 SLP097
Pressure 29.82 in
Visibility 10.0 miles
Clouds Scattered Clouds 2800 ft
Mostly Cloudy 6000 ft
Heat Index 73 °F
Dew Point 62 °F
Humidity 73%
Rainfall 0.00 in
Snow Depth Not available.
7:13 AM 6:19 PM
Last Quarter, 41% visible
SPECI KFSI 191912Z AUTO 16013KT 10SM SCT028 BKN060 23/17 A2983 RMK AO2 SLP097

Get Your Daily Forecast Email!

Thanks for signing up!

Be on the lookout for a verification email in your inbox.

You'll start receiving the daily forecast at 8 AM.

×

10-Day Weather Forecast

Almanac

Astronomy

Feb. 19, 2017 Rise Set
Actual Time
Civil Twilight
Nautical Twilight
Astronomical Twilight
Moon
Length of Visible Light
Length of Day
Tomorrow will be .
, % of the Moon is Illuminated

Today's Extremes

State Highs State Lows

Community

WunderPhotos

Upload Photos

1,962,540 photos uploaded!

WunderBlog® & News

Nearby

Air Quality

  Air Quality AQ Index Pollutant
Not available.

Snow Depth

Station Depth Elevation

Earthquake Activity

City Distance Mag. Time & Date
Minimum magnitude displayed is 2.5.

Coastal Water Temperatures

Place Temperature

Stations

Nearby Weather Stations

Station Location Temp. Windchill Dew Point Humidity Wind Precip. Elev Updated Type
                   

Watches & Warnings

There are currently no watches in effect.